createdAt,value
2018-09-23T00:00:12.930Z,80.34
2018-09-23T00:01:23.060Z,80.34
2018-09-23T00:02:33.195Z,80.34
2018-09-23T00:03:43.326Z,80.72
2018-09-23T00:04:53.460Z,80.15
2018-09-23T00:06:03.042Z,80.53
2018-09-23T00:07:13.181Z,81.2
2018-09-23T00:08:23.325Z,80.34
2018-09-23T00:09:33.454Z,80.44
2018-09-23T00:10:43.585Z,81.01
2018-09-23T00:11:53.716Z,81.48
2018-09-23T00:13:03.856Z,81.67
2018-09-23T00:14:13.992Z,81.67
2018-09-23T00:15:23.852Z,81.58
2018-09-23T00:16:33.987Z,81.58
2018-09-23T00:17:44.119Z,82.24
2018-09-23T00:18:54.251Z,81.77
2018-09-23T00:20:04.163Z,82.43
2018-09-23T00:21:13.752Z,82.34
2018-09-23T00:22:24.048Z,82.15
2018-09-23T00:23:33.643Z,83
2018-09-23T00:24:43.501Z,83
2018-09-23T00:25:53.642Z,82.81
2018-09-23T00:27:03.520Z,82.43
2018-09-23T00:28:13.392Z,83.1
2018-09-23T00:29:23.526Z,83.67
2018-09-23T00:30:33.663Z,82.81
2018-09-23T00:31:43.576Z,83
2018-09-23T00:32:53.438Z,82.43
2018-09-23T00:34:03.587Z,82.34
2018-09-23T00:35:13.721Z,81.73
2018-09-23T00:36:23.581Z,82.15
2018-09-23T00:37:33.711Z,82.24
2018-09-23T00:38:43.841Z,82.71
2018-09-23T00:39:53.978Z,82.24
2018-09-23T00:41:04.115Z,82.34
2018-09-23T00:42:14.308Z,81.96
2018-09-23T00:43:24.450Z,81.77
2018-09-23T00:44:34.317Z,81.86
2018-09-23T00:45:44.447Z,81.86
2018-09-23T00:46:54.313Z,82.15
2018-09-23T00:48:04.171Z,82.43
2018-09-23T00:49:13.529Z,82.24
2018-09-23T00:50:23.386Z,82.91
2018-09-23T00:51:33.515Z,82.15
2018-09-23T00:52:43.699Z,82.53
2018-09-23T00:53:53.557Z,82.24
2018-09-23T00:55:03.415Z,82.43
2018-09-23T00:56:12.992Z,81.96
2018-09-23T00:57:22.848Z,81.96
2018-09-23T00:58:32.710Z,82.34
2018-09-23T00:59:42.573Z,82.24
2018-09-23T01:00:52.707Z,82.53
2018-09-23T01:02:02.567Z,82.34
2018-09-23T01:03:12.148Z,82.24
2018-09-23T01:04:22.282Z,81.96
2018-09-23T01:05:32.424Z,82.05
2018-09-23T01:06:42.327Z,82.05
2018-09-23T01:07:52.456Z,81.86
2018-09-23T01:09:02.321Z,81.77
2018-09-23T01:10:12.458Z,81.2
2018-09-23T01:11:22.592Z,81.1
2018-09-23T01:12:32.445Z,81.67
2018-09-23T01:13:42.584Z,81.86
2018-09-23T01:14:52.715Z,82.24
2018-09-23T01:16:02.844Z,81.58
2018-09-23T01:17:12.433Z,82.05
2018-09-23T01:18:22.393Z,81.29
2018-09-23T01:19:32.527Z,81.48
2018-09-23T01:20:42.383Z,81.01
2018-09-23T01:21:51.966Z,81.38
2018-09-23T01:23:02.097Z,81.96
2018-09-23T01:24:11.958Z,81.01
2018-09-23T01:25:21.543Z,81.48
2018-09-23T01:26:31.679Z,81.29
2018-09-23T01:27:41.831Z,80.63
2018-09-23T01:28:51.690Z,81.01
2018-09-23T01:30:01.828Z,81.29
2018-09-23T01:31:11.412Z,81.2
2018-09-23T01:32:21.272Z,81.58
2018-09-23T01:33:31.413Z,81.67
2018-09-23T01:34:41.272Z,81.96
2018-09-23T01:35:51.400Z,81.77
2018-09-23T01:37:01.255Z,82.24
2018-09-23T01:38:11.389Z,81.77
2018-09-23T01:39:21.536Z,81.96
2018-09-23T01:40:31.395Z,82.05
2018-09-23T01:41:41.579Z,82.34
2018-09-23T01:42:51.722Z,81.77
2018-09-23T01:44:01.857Z,82.34
2018-09-23T01:45:11.761Z,82.34
2018-09-23T01:46:21.907Z,82.34
2018-09-23T01:47:32.089Z,82.53
2018-09-23T01:48:41.944Z,82.43
2018-09-23T01:49:51.799Z,82.81
2018-09-23T01:51:01.929Z,83.1
2018-09-23T01:52:11.784Z,82.71
2018-09-23T01:53:21.641Z,82.05
2018-09-23T01:54:31.228Z,82.34
2018-09-23T01:55:41.359Z,83
2018-09-23T01:56:51.491Z,82.71
2018-09-23T01:58:01.399Z,82.24
2018-09-23T01:59:10.437Z,81.86
2018-09-23T02:00:20.298Z,82.05
2018-09-23T02:01:30.437Z,81.67
2018-09-23T02:02:40.298Z,82.15
2018-09-23T02:03:50.435Z,83
2018-09-23T02:05:00.614Z,82.53
2018-09-23T02:06:09.924Z,82.24
2018-09-23T02:07:20.058Z,82.71
2018-09-23T02:08:29.915Z,83
2018-09-23T02:09:40.054Z,82.53
2018-09-23T02:10:50.237Z,83
2018-09-23T02:11:59.820Z,83
2018-09-23T02:13:09.678Z,83.1
2018-09-23T02:14:19.813Z,82.81
2018-09-23T02:15:29.674Z,82.1
2018-09-23T02:16:39.030Z,82.62
2018-09-23T02:17:48.887Z,82.34
2018-09-23T02:18:58.745Z,82.43
2018-09-23T02:20:08.876Z,81.63
2018-09-23T02:21:19.223Z,81.77
2018-09-23T02:22:29.563Z,81.2
2018-09-23T02:23:39.427Z,81.48
2018-09-23T02:24:49.285Z,82.05
2018-09-23T02:25:59.423Z,81.77
2018-09-23T02:27:09.606Z,82.05
2018-09-23T02:28:19.802Z,81.67
2018-09-23T02:29:29.941Z,81.96
2018-09-23T02:30:40.074Z,81.77
2018-09-23T02:31:49.937Z,82.15
2018-09-23T02:32:59.245Z,81.77
2018-09-23T02:34:09.384Z,81.77
2018-09-23T02:35:19.521Z,81.58
2018-09-23T02:36:29.154Z,81.67
2018-09-23T02:37:39.019Z,81.77
2018-09-23T02:38:48.605Z,81.29
2018-09-23T02:39:58.744Z,81.48
2018-09-23T02:41:08.622Z,81.67
2018-09-23T02:42:18.767Z,81.58
2018-09-23T02:43:28.911Z,81.86
2018-09-23T02:44:38.771Z,81.58
2018-09-23T02:45:52.028Z,81.38
2018-09-23T02:47:01.893Z,81.2
2018-09-23T02:48:11.749Z,81.29
2018-09-23T02:49:21.604Z,81.2
2018-09-23T02:50:31.468Z,80.44
2018-09-23T02:51:41.647Z,79.49
2018-09-23T02:52:51.508Z,78.53
2018-09-23T02:54:01.645Z,77.49
2018-09-23T02:55:11.781Z,77.58
2018-09-23T02:56:21.960Z,77.11
2018-09-23T02:57:32.101Z,77.81
2018-09-23T02:58:41.966Z,78.34
2018-09-23T02:59:52.100Z,77.68
2018-09-23T03:01:01.965Z,78.06
2018-09-23T03:02:12.096Z,78.25
2018-09-23T03:03:22.275Z,78.25
2018-09-23T03:04:32.411Z,79.39
2018-09-23T03:05:42.552Z,79.11
2018-09-23T03:06:52.412Z,79.39
2018-09-23T03:08:02.268Z,79.39
2018-09-23T03:09:11.852Z,79.3
2018-09-23T03:10:21.438Z,79.96
2018-09-23T03:11:31.579Z,80.05
2018-09-23T03:12:41.438Z,80.15
2018-09-23T03:13:51.571Z,80.15
2018-09-23T03:15:01.711Z,80.34
2018-09-23T03:16:11.567Z,80.34
2018-09-23T03:17:21.698Z,80.34
2018-09-23T03:18:31.833Z,80.63
2018-09-23T03:19:41.698Z,80.91
2018-09-23T03:20:51.057Z,81.01
2018-09-23T03:22:01.194Z,81.29
2018-09-23T03:23:11.332Z,81.77
2018-09-23T03:24:21.186Z,81.58
2018-09-23T03:25:31.060Z,81.96
2018-09-23T03:26:41.203Z,82.43
2018-09-23T03:27:50.792Z,82.53
2018-09-23T03:29:00.941Z,81.67
2018-09-23T03:30:10.809Z,81.77
2018-09-23T03:31:20.952Z,81.16
2018-09-23T03:32:31.152Z,81.2
2018-09-23T03:33:41.031Z,80.72
2018-09-23T03:34:50.612Z,80.15
2018-09-23T03:36:00.194Z,80.91
2018-09-23T03:37:10.336Z,81.29
2018-09-23T03:38:20.528Z,81.01
2018-09-23T03:39:30.396Z,81.67
2018-09-23T03:40:40.542Z,82.05
2018-09-23T03:41:50.702Z,80.53
2018-09-23T03:43:00.845Z,81.1
2018-09-23T03:44:11.044Z,81.67
2018-09-23T03:45:21.179Z,81.1
2018-09-23T03:46:31.036Z,81.06
2018-09-23T03:47:41.169Z,80.96
2018-09-23T03:48:51.321Z,81.16
2018-09-23T03:50:01.452Z,80.96
2018-09-23T03:51:11.044Z,81.92
2018-09-23T03:52:20.905Z,80.87
2018-09-23T03:53:31.042Z,80.4
2018-09-23T03:54:41.175Z,81.25
2018-09-23T03:55:51.310Z,81.63
2018-09-23T03:57:01.440Z,81.16
2018-09-23T03:58:11.843Z,81.25
2018-09-23T03:59:22.032Z,81.25
2018-09-23T04:00:32.167Z,81.35
2018-09-23T04:01:42.028Z,81.63
2018-09-23T04:02:52.172Z,82.49
2018-09-23T04:04:02.305Z,82.01
2018-09-23T04:05:11.908Z,82.29
2018-09-23T04:06:22.046Z,82.39
2018-09-23T04:07:32.234Z,82.39
2018-09-23T04:08:42.092Z,82.49
2018-09-23T04:09:52.244Z,82.49
2018-09-23T04:11:02.103Z,83.06
2018-09-23T04:12:12.039Z,82.77
2018-09-23T04:13:22.155Z,82.96
2018-09-23T04:14:31.739Z,82.96
2018-09-23T04:15:41.872Z,82.87
2018-09-23T04:16:51.999Z,83.15
2018-09-23T04:18:02.140Z,83.06
2018-09-23T04:19:12.096Z,82.96
2018-09-23T04:20:21.955Z,83.53
2018-09-23T04:21:32.106Z,82.77
2018-09-23T04:22:41.418Z,82.39
2018-09-23T04:23:51.578Z,83.06
2018-09-23T04:25:01.536Z,82.87
2018-09-23T04:26:11.692Z,82.96
2018-09-23T04:27:21.827Z,82.77
2018-09-23T04:28:31.968Z,82.87
2018-09-23T04:29:42.109Z,82.96
2018-09-23T04:30:52.026Z,82.2
2018-09-23T04:32:02.161Z,82.82
2018-09-23T04:33:12.294Z,83.06
2018-09-23T04:34:22.427Z,83.06
2018-09-23T04:35:32.008Z,83.15
2018-09-23T04:36:42.158Z,82.01
2018-09-23T04:37:52.297Z,80.83
2018-09-23T04:39:02.433Z,81.12
2018-09-23T04:40:12.302Z,81.06
2018-09-23T04:41:21.608Z,81.16
2018-09-23T04:42:31.793Z,81.21
2018-09-23T04:43:41.929Z,81.02
2018-09-23T04:44:52.135Z,81.06
2018-09-23T04:46:02.490Z,81.12
2018-09-23T04:47:12.628Z,80.3
2018-09-23T04:48:22.266Z,80.02
2018-09-23T04:49:31.852Z,80.49
2018-09-23T04:50:41.708Z,80.3
2018-09-23T04:51:51.289Z,80.96
2018-09-23T04:53:01.141Z,81.16
2018-09-23T04:54:11.056Z,81.02
2018-09-23T04:55:21.347Z,81.16
2018-09-23T04:56:31.131Z,80.96
2018-09-23T04:57:40.991Z,81.44
2018-09-23T04:58:50.848Z,81.02
2018-09-23T05:00:00.476Z,80.74
2018-09-23T05:01:10.329Z,80.35
2018-09-23T05:02:20.182Z,80.16
2018-09-23T05:03:30.038Z,80.02
2018-09-23T05:04:39.897Z,79.69
2018-09-23T05:05:49.812Z,79.92
2018-09-23T05:06:59.124Z,79.69
2018-09-23T05:08:08.994Z,79.97
2018-09-23T05:09:18.575Z,80.07
2018-09-23T05:10:28.169Z,80.87
2018-09-23T05:11:38.306Z,80.49
2018-09-23T05:12:48.163Z,80.35
2018-09-23T05:13:58.292Z,79.41
2018-09-23T05:15:08.264Z,79.63
2018-09-23T05:16:18.120Z,80.49
2018-09-23T05:17:27.753Z,80.11
2018-09-23T05:18:37.610Z,80.02
2018-09-23T05:19:47.742Z,79.63
2018-09-23T05:20:57.596Z,79.16
2018-09-23T05:22:06.906Z,79.25
2018-09-23T05:23:17.095Z,79.54
2018-09-23T05:24:27.234Z,79.69
2018-09-23T05:25:36.819Z,79.41
2018-09-23T05:26:46.674Z,80.4
2018-09-23T05:27:56.532Z,80.45
2018-09-23T05:29:06.726Z,80.3
2018-09-23T05:30:16.632Z,80.64
2018-09-23T05:31:26.440Z,79.83
2018-09-23T05:32:36.300Z,78.3
2018-09-23T05:33:46.440Z,78.5
2018-09-23T05:34:56.569Z,79.73
2018-09-23T05:36:06.705Z,79.54
2018-09-23T05:37:16.561Z,79.35
2018-09-23T05:38:26.420Z,80.21
2018-09-23T05:39:36.548Z,80.21
2018-09-23T05:40:46.729Z,80.87
2018-09-23T05:41:56.864Z,79.73
2018-09-23T05:43:06.719Z,79.83
2018-09-23T05:44:16.865Z,79.83
2018-09-23T05:45:26.458Z,80.3
2018-09-23T05:46:36.589Z,80.3
2018-09-23T05:47:46.451Z,80.68
2018-09-23T05:48:56.314Z,80.3
2018-09-23T05:50:06.447Z,80.68
2018-09-23T05:51:16.581Z,79.83
2018-09-23T05:52:26.487Z,79.16
2018-09-23T05:53:36.619Z,77.73
2018-09-23T05:54:46.752Z,75.74
2018-09-23T05:55:56.606Z,75.4
2018-09-23T05:57:06.739Z,76.25
2018-09-23T05:58:16.376Z,75.96
2018-09-23T05:59:26.257Z,75.21
2018-09-23T06:00:36.119Z,75.59
2018-09-23T06:01:45.973Z,74.26
2018-09-23T06:02:55.835Z,74.82
2018-09-23T06:04:06.121Z,74.26
2018-09-23T06:05:15.706Z,74.16
2018-09-23T06:06:25.564Z,73.59
2018-09-23T06:07:35.426Z,74.92
2018-09-23T06:08:45.710Z,75.4
2018-09-23T06:09:55.586Z,74.07
2018-09-23T06:11:05.206Z,74.63
2018-09-23T06:12:15.581Z,75.78
2018-09-23T06:13:25.442Z,74.73
2018-09-23T06:14:35.590Z,74.26
2018-09-23T06:15:45.453Z,74.63
2018-09-23T06:16:55.582Z,74.54
2018-09-23T06:18:05.173Z,74.92
2018-09-23T06:19:15.062Z,75.68
2018-09-23T06:20:24.649Z,75.59
2018-09-23T06:21:34.538Z,76.44
2018-09-23T06:22:44.411Z,76.06
2018-09-23T06:23:54.544Z,75.59
2018-09-23T06:25:04.464Z,76.35
2018-09-23T06:26:14.516Z,76.06
2018-09-23T06:27:24.716Z,77.11
2018-09-23T06:28:34.570Z,77.39
2018-09-23T06:29:44.152Z,77.49
2018-09-23T06:30:54.282Z,76.73
2018-09-23T06:32:04.421Z,77.26
2018-09-23T06:33:14.050Z,77.58
2018-09-23T06:34:24.188Z,77.11
2018-09-23T06:35:34.341Z,77.3
2018-09-23T06:36:43.922Z,77.39
2018-09-23T06:37:53.815Z,77.73
2018-09-23T06:39:04.006Z,77.45
2018-09-23T06:40:13.311Z,77.07
2018-09-23T06:41:22.901Z,77.07
2018-09-23T06:42:33.035Z,77.55
2018-09-23T06:43:42.947Z,77.64
2018-09-23T06:44:53.413Z,77.83
2018-09-23T06:46:03.524Z,77.92
2018-09-23T06:47:13.566Z,77.64
2018-09-23T06:48:23.693Z,77.83
2018-09-23T06:49:33.552Z,77.83
2018-09-23T06:50:43.740Z,77.26
2018-09-23T06:51:53.875Z,77.83
2018-09-23T06:53:04.010Z,77.73
2018-09-23T06:54:13.867Z,77.55
2018-09-23T06:55:24.009Z,77.55
2018-09-23T06:56:34.197Z,77.68
2018-09-23T06:57:44.056Z,77.68
2018-09-23T06:58:53.651Z,76.06
2018-09-23T07:00:03.844Z,77.01
2018-09-23T07:01:13.982Z,76.92
2018-09-23T07:02:24.121Z,76.35
2018-09-23T07:03:34.255Z,76.35
2018-09-23T07:04:44.333Z,76.54
2018-09-23T07:05:53.694Z,76.63
2018-09-23T07:07:03.561Z,76.44
2018-09-23T07:08:13.997Z,75.87
2018-09-23T07:09:23.874Z,76.35
2018-09-23T07:10:34.228Z,75.78
2018-09-23T07:11:44.366Z,76.44
2018-09-23T07:12:54.228Z,76.67
2018-09-23T07:14:04.139Z,76.29
2018-09-23T07:15:13.998Z,75.91
2018-09-23T07:16:23.860Z,75.81
2018-09-23T07:17:33.989Z,75.62
2018-09-23T07:18:43.849Z,75.15
2018-09-23T07:19:54.030Z,74.24
2018-09-23T07:21:04.170Z,75.24
2018-09-23T07:22:14.025Z,74.14
2018-09-23T07:23:23.891Z,73.91
2018-09-23T07:24:33.488Z,74.01
2018-09-23T07:25:43.678Z,73.76
2018-09-23T07:26:53.816Z,73.57
2018-09-23T07:28:03.680Z,74.52
2018-09-23T07:29:13.543Z,74.04
2018-09-23T07:30:23.672Z,73.85
2018-09-23T07:31:33.865Z,74.04
2018-09-23T07:32:44.001Z,73.95
2018-09-23T07:33:54.137Z,74.99
2018-09-23T07:35:03.722Z,74.71
2018-09-23T07:36:13.859Z,74.62
2018-09-23T07:37:23.768Z,74.9
2018-09-23T07:38:33.638Z,73.47
2018-09-23T07:39:43.364Z,73.85
2018-09-23T07:40:53.672Z,74.99
2018-09-23T07:42:03.806Z,74.9
2018-09-23T07:43:13.446Z,74.9
2018-09-23T07:44:22.759Z,75.28
2018-09-23T07:45:32.619Z,75.67
2018-09-23T07:46:42.766Z,74.04
2018-09-23T07:47:52.368Z,74.33
2018-09-23T07:49:02.772Z,74.24
2018-09-23T07:50:12.921Z,73.38
2018-09-23T07:51:23.053Z,74.04
2018-09-23T07:52:32.917Z,74.62
2018-09-23T07:53:43.051Z,75.47
2018-09-23T07:54:52.684Z,75.57
2018-09-23T07:56:02.310Z,75.38
2018-09-23T07:57:12.583Z,75.67
2018-09-23T07:58:22.725Z,75.42
2018-09-23T07:59:32.858Z,74.84
2018-09-23T08:00:43.050Z,74.84
2018-09-23T08:01:52.913Z,74.08
2018-09-23T08:03:03.055Z,74.27
2018-09-23T08:04:12.919Z,75.23
2018-09-23T08:05:22.781Z,74.84
2018-09-23T08:06:32.968Z,74.27
2018-09-23T08:07:42.278Z,74.56
2018-09-23T08:08:52.427Z,73.89
2018-09-23T08:10:02.613Z,74.75
2018-09-23T08:11:12.752Z,75.04
2018-09-23T08:12:23.091Z,75.42
2018-09-23T08:13:34.089Z,75.89
2018-09-23T08:14:45.677Z,75.32
2018-09-23T08:15:58.254Z,75.26
2018-09-23T08:17:07.938Z,75.16
2018-09-23T08:18:18.274Z,75.07
2018-09-23T08:19:28.693Z,74.79
2018-09-23T08:20:39.623Z,75.16
2018-09-23T08:21:50.190Z,75.55
2018-09-23T08:23:00.070Z,74.79
2018-09-23T08:24:09.801Z,75.26
2018-09-23T08:25:19.945Z,75.16
2018-09-23T08:26:30.424Z,75.64
2018-09-23T08:27:40.963Z,72.97
2018-09-23T08:28:51.100Z,74.88
2018-09-23T08:30:00.690Z,74.02
2018-09-23T08:31:10.006Z,74.12
2018-09-23T08:32:20.174Z,75.07
2018-09-23T08:33:30.314Z,75.55
2018-09-23T08:34:40.447Z,76.03
2018-09-23T08:35:50.309Z,76.88
2018-09-23T08:37:00.210Z,76.12
2018-09-23T08:38:10.077Z,76.59
2018-09-23T08:39:20.234Z,76.12
2018-09-23T08:40:30.374Z,76.5
2018-09-23T08:41:40.532Z,75.55
2018-09-23T08:42:50.808Z,75.93
2018-09-23T08:44:00.912Z,75.74
2018-09-23T08:45:10.786Z,75.74
2018-09-23T08:46:20.934Z,76.35
2018-09-23T08:47:30.792Z,75.01
2018-09-23T08:48:40.930Z,74.79
2018-09-23T08:49:51.072Z,74.88
2018-09-23T08:51:01.206Z,76.12
2018-09-23T08:52:10.866Z,75.16
2018-09-23T08:53:21.012Z,75.45
2018-09-23T08:54:30.878Z,76.21
2018-09-23T08:55:41.013Z,75.93
2018-09-23T08:56:51.157Z,76.03
2018-09-23T08:58:01.300Z,75.93
2018-09-23T08:59:11.468Z,76.88
2018-09-23T09:00:21.617Z,77.55
2018-09-23T09:01:31.492Z,76.4
2018-09-23T09:02:41.636Z,77.26
2018-09-23T09:03:51.929Z,77.45
2018-09-23T09:05:01.246Z,77.83
2018-09-23T09:06:11.108Z,78.03
2018-09-23T09:07:21.245Z,76.73
2018-09-23T09:08:31.383Z,74.92
2018-09-23T09:09:41.299Z,74.82
2018-09-23T09:10:51.234Z,75.01
2018-09-23T09:12:00.980Z,74.73
2018-09-23T09:13:10.570Z,75.3
2018-09-23T09:14:20.159Z,75.3
2018-09-23T09:15:30.031Z,76.21
2018-09-23T09:16:40.971Z,75.3
2018-09-23T09:17:51.109Z,74.82
2018-09-23T09:19:00.979Z,75.2
2018-09-23T09:20:11.116Z,74.25
2018-09-23T09:21:20.983Z,73.3
2018-09-23T09:22:31.925Z,72.82
2018-09-23T09:23:41.513Z,73.3
2018-09-23T09:24:51.650Z,73.87
2018-09-23T09:26:01.789Z,74.06
2018-09-23T09:27:11.925Z,74.44
2018-09-23T09:28:22.698Z,72.82
2018-09-23T09:29:32.288Z,71.04
2018-09-23T09:30:42.429Z,72.19
2018-09-23T09:31:52.295Z,71.43
2018-09-23T09:33:02.155Z,71.33
2018-09-23T09:34:12.356Z,69.9
2018-09-23T09:35:22.584Z,70.86
2018-09-23T09:36:32.177Z,70.47
2018-09-23T09:37:42.325Z,69.9
2018-09-23T09:38:52.483Z,68.82
2018-09-23T09:40:02.633Z,69.1
2018-09-23T09:41:11.956Z,69.58
2018-09-23T09:42:21.543Z,68.82
2018-09-23T09:43:31.135Z,69.48
2018-09-23T09:44:41.284Z,67.1
2018-09-23T09:45:51.427Z,69.2
2018-09-23T09:47:01.566Z,69.58
2018-09-23T09:48:11.434Z,70.82
2018-09-23T09:49:21.572Z,70.92
2018-09-23T09:50:31.712Z,71.2
2018-09-23T09:51:41.591Z,68.34
2018-09-23T09:52:51.451Z,68.63
2018-09-23T09:54:01.044Z,69.68
2018-09-23T09:55:10.956Z,71.11
2018-09-23T09:56:21.270Z,68.53
2018-09-23T09:57:30.581Z,68.24
2018-09-23T09:58:40.449Z,68.72
2018-09-23T09:59:50.320Z,68.09
2018-09-23T10:01:00.459Z,69.81
2018-09-23T10:02:10.047Z,69.33
2018-09-23T10:03:19.916Z,67.23
2018-09-23T10:04:30.065Z,66.38
2018-09-23T10:05:39.936Z,67.61
2018-09-23T10:06:50.073Z,66.38
2018-09-23T10:07:59.660Z,66.69
2018-09-23T10:09:09.258Z,67.46
2018-09-23T10:10:19.121Z,66.78
2018-09-23T10:11:29.334Z,65.36
2018-09-23T10:12:39.843Z,66.22
2018-09-23T10:13:49.708Z,66.41
2018-09-23T10:14:59.846Z,65.17
2018-09-23T10:16:09.436Z,64.25
2018-09-23T10:17:19.580Z,64.78
2018-09-23T10:18:29.169Z,65.45
2018-09-23T10:19:39.314Z,64.34
2018-09-23T10:20:49.329Z,63.67
2018-09-23T10:21:59.200Z,63.2
2018-09-23T10:23:09.537Z,64.05
2018-09-23T10:24:19.656Z,62.34
2018-09-23T10:25:29.245Z,61.95
2018-09-23T10:26:39.146Z,60.3
2018-09-23T10:27:49.288Z,60.97
2018-09-23T10:28:58.882Z,60.39
2018-09-23T10:30:09.035Z,61.92
2018-09-23T10:31:19.480Z,63.07
2018-09-23T10:32:30.071Z,62.02
2018-09-23T10:33:40.216Z,63
2018-09-23T10:34:50.362Z,63
2018-09-23T10:36:00.537Z,60.61
2018-09-23T10:37:10.913Z,60.04
2018-09-23T10:38:21.054Z,60.61
2018-09-23T10:39:30.651Z,63.29
2018-09-23T10:40:40.801Z,62.71
2018-09-23T10:41:50.945Z,61.95
2018-09-23T10:43:01.086Z,59.47
2018-09-23T10:44:11.109Z,60.04
2018-09-23T10:45:20.976Z,61.86
2018-09-23T10:46:31.114Z,60.04
2018-09-23T10:47:40.980Z,60.24
2018-09-23T10:48:51.126Z,60.61
2018-09-23T10:50:01.304Z,59.76
2018-09-23T10:51:11.226Z,59.25
2018-09-23T10:52:21.365Z,61.54
2018-09-23T10:53:30.956Z,61.73
2018-09-23T10:54:40.545Z,60.68
2018-09-23T10:55:50.686Z,63.07
2018-09-23T10:56:59.999Z,63.07
2018-09-23T10:58:09.870Z,61.16
2018-09-23T10:59:19.468Z,60.9
2018-09-23T11:00:29.838Z,60.14
2018-09-23T11:01:39.985Z,60.71
2018-09-23T11:02:50.132Z,60.64
2018-09-23T11:04:00.441Z,59.69
2018-09-23T11:05:11.342Z,58.1
2018-09-23T11:06:21.489Z,57.04
2018-09-23T11:07:31.500Z,57.53
2018-09-23T11:08:41.645Z,58.76
2018-09-23T11:09:51.972Z,60.01
2018-09-23T11:11:02.354Z,60.13
2018-09-23T11:12:12.223Z,60.23
2018-09-23T11:13:22.380Z,59.18
2018-09-23T11:14:32.550Z,57.39
2018-09-23T11:15:42.699Z,55.47
2018-09-23T11:16:52.622Z,58.06
2018-09-23T11:18:02.825Z,57.7
2018-09-23T11:19:12.150Z,57.9
2018-09-23T11:20:22.015Z,57.8
2018-09-23T11:21:32.158Z,57.54
2018-09-23T11:22:41.756Z,56.61
2018-09-23T11:23:51.620Z,53.93
2018-09-23T11:25:01.761Z,52.4
2018-09-23T11:26:11.901Z,54.36
2018-09-23T11:27:21.506Z,55.88
2018-09-23T11:28:31.647Z,54.67
2018-09-23T11:29:41.786Z,55.24
2018-09-23T11:30:51.521Z,54.7
2018-09-23T11:32:01.474Z,55.27
2018-09-23T11:33:11.627Z,52.59
2018-09-23T11:34:21.764Z,50.67
2018-09-23T11:35:31.633Z,52.56
2018-09-23T11:36:41.505Z,52.06
2018-09-23T11:37:51.648Z,52.44
2018-09-23T11:39:01.795Z,50.91
2018-09-23T11:40:11.669Z,51.75
2018-09-23T11:41:21.820Z,53.53
2018-09-23T11:42:32.012Z,52.67
2018-09-23T11:43:42.156Z,54.27
2018-09-23T11:44:52.030Z,55.13
2018-09-23T11:46:02.172Z,54.27
2018-09-23T11:47:12.039Z,54.06
2018-09-23T11:48:21.920Z,54.44
2018-09-23T11:49:31.512Z,54.25
2018-09-23T11:50:41.110Z,54.63
2018-09-23T11:51:51.257Z,55.27
2018-09-23T11:53:00.852Z,55.75
2018-09-23T11:54:10.993Z,56.25
2018-09-23T11:55:20.859Z,57.4
2018-09-23T11:56:30.743Z,57.5
2018-09-23T11:57:40.890Z,57.87
2018-09-23T11:58:51.199Z,58.26
2018-09-23T12:00:01.787Z,57.78
2018-09-23T12:01:11.379Z,57.59
2018-09-23T12:02:21.363Z,56.45
2018-09-23T12:03:31.323Z,55.68
2018-09-23T12:04:40.917Z,55.87
2018-09-23T12:05:51.066Z,55.68
2018-09-23T12:07:01.213Z,56.63
2018-09-23T12:08:11.360Z,56.73
2018-09-23T12:09:21.237Z,57.02
2018-09-23T12:10:31.395Z,57.87
2018-09-23T12:11:41.704Z,57.02
2018-09-23T12:12:51.850Z,56.45
2018-09-23T12:14:01.994Z,56.06
2018-09-23T12:15:11.876Z,55.2
2018-09-23T12:16:21.739Z,55.96
2018-09-23T12:17:31.887Z,56.45
2018-09-23T12:18:41.519Z,56.47
2018-09-23T12:19:51.385Z,56.18
2018-09-23T12:21:01.530Z,57.24
2018-09-23T12:22:11.133Z,57.43
2018-09-23T12:23:21.288Z,57.46
2018-09-23T12:24:31.428Z,57.17
2018-09-23T12:25:41.910Z,56.6
2018-09-23T12:26:52.944Z,55.54
2018-09-23T12:28:02.263Z,56.21
2018-09-23T12:29:12.555Z,55.38
2018-09-23T12:30:22.431Z,55.88
2018-09-23T12:31:32.301Z,54.74
2018-09-23T12:32:42.444Z,53.49
2018-09-23T12:33:52.312Z,52.66
2018-09-23T12:35:02.454Z,52.47
2018-09-23T12:36:12.321Z,52.56
2018-09-23T12:37:22.466Z,53.52
2018-09-23T12:38:32.063Z,51.99
2018-09-23T12:39:42.330Z,51.48
2018-09-23T12:40:52.351Z,50.74
2018-09-23T12:42:02.491Z,51.2
2018-09-23T12:43:12.355Z,52.44
2018-09-23T12:44:22.500Z,51.87
2018-09-23T12:45:32.365Z,51.01
2018-09-23T12:46:42.512Z,50.91
2018-09-23T12:47:52.126Z,50.72
2018-09-23T12:49:02.264Z,51.01
2018-09-23T12:50:12.142Z,51.48
2018-09-23T12:51:22.006Z,50.81
2018-09-23T12:52:31.603Z,52.06
2018-09-23T12:53:41.746Z,51.17
2018-09-23T12:54:51.613Z,51.84
2018-09-23T12:56:01.480Z,52.61
2018-09-23T12:57:11.347Z,53.44
2018-09-23T12:58:21.215Z,54.11
2018-09-23T12:59:31.078Z,52.87
2018-09-23T13:00:40.944Z,53.13
2018-09-23T13:01:50.808Z,53.8
2018-09-23T13:03:00.948Z,54.91
2018-09-23T13:04:11.089Z,56.35
2018-09-23T13:05:20.953Z,56.16
2018-09-23T13:06:31.096Z,55.96
2018-09-23T13:07:41.242Z,55.27
2018-09-23T13:08:50.831Z,55.46
2018-09-23T13:10:00.977Z,55.53
2018-09-23T13:11:10.858Z,57.15
2018-09-23T13:12:20.448Z,56.96
2018-09-23T13:13:30.317Z,57.7
2018-09-23T13:14:40.181Z,58.36
2018-09-23T13:15:49.769Z,58.75
2018-09-23T13:16:59.635Z,59.12
2018-09-23T13:18:09.718Z,58.33
2018-09-23T13:19:20.116Z,58.62
2018-09-23T13:20:30.626Z,57.76
2018-09-23T13:21:40.211Z,58.14
2018-09-23T13:22:50.074Z,58.24
2018-09-23T13:24:00.217Z,58.62
2018-09-23T13:25:10.359Z,58.72
2018-09-23T13:26:20.218Z,58.14
2018-09-23T13:27:30.362Z,58.52
2018-09-23T13:28:40.500Z,58.24
2018-09-23T13:29:50.704Z,57.38
2018-09-23T13:31:00.854Z,55.95
2018-09-23T13:32:10.717Z,56.33
2018-09-23T13:33:20.856Z,56.33
2018-09-23T13:34:30.443Z,55.85
2018-09-23T13:35:40.032Z,55.85
2018-09-23T13:36:49.891Z,54.61
2018-09-23T13:37:59.754Z,56.14
2018-09-23T13:39:09.618Z,56.9
2018-09-23T13:40:19.476Z,57.76
2018-09-23T13:41:29.063Z,57.95
2018-09-23T13:42:38.657Z,56.43
2018-09-23T13:43:48.796Z,56.33
2018-09-23T13:44:58.709Z,57.38
2018-09-23T13:46:08.577Z,58.72
2018-09-23T13:47:18.165Z,58.04
2018-09-23T13:48:28.304Z,59.26
2018-09-23T13:49:37.338Z,59.26
2018-09-23T13:50:47.209Z,60.3
2018-09-23T13:51:57.086Z,59.06
2018-09-23T13:53:06.949Z,60.21
2018-09-23T13:54:16.845Z,61.73
2018-09-23T13:55:27.199Z,62.12
2018-09-23T13:56:37.061Z,61.83
2018-09-23T13:57:47.202Z,61.61
2018-09-23T13:58:57.073Z,60.75
2018-09-23T14:00:06.381Z,61.22
2018-09-23T14:01:16.242Z,60.56
2018-09-23T14:02:26.385Z,60.75
2018-09-23T14:03:36.534Z,60.66
2018-09-23T14:04:46.670Z,60.94
2018-09-23T14:05:56.938Z,60.37
2018-09-23T14:07:06.797Z,60.46
2018-09-23T14:08:16.932Z,60.46
2018-09-23T14:09:26.793Z,61.22
2018-09-23T14:10:36.926Z,60.56
2018-09-23T14:11:46.788Z,61.13
2018-09-23T14:12:56.649Z,61.7
2018-09-23T14:14:06.335Z,61.32
2018-09-23T14:15:16.203Z,61.7
2018-09-23T14:16:26.060Z,61.73
2018-09-23T14:17:36.192Z,62.02
2018-09-23T14:18:46.331Z,61.93
2018-09-23T14:19:56.242Z,61.45
2018-09-23T14:21:06.378Z,58.4
2018-09-23T14:22:16.527Z,56.02
2018-09-23T14:23:26.662Z,56.11
2018-09-23T14:24:36.521Z,57.73
2018-09-23T14:25:46.664Z,58.91
2018-09-23T14:26:56.812Z,60.52
2018-09-23T14:28:06.396Z,61.76
2018-09-23T14:29:16.533Z,63.76
2018-09-23T14:30:26.120Z,63.86
2018-09-23T14:31:35.707Z,63.86
2018-09-23T14:32:45.577Z,63.86
2018-09-23T14:33:55.722Z,61.99
2018-09-23T14:35:05.589Z,61.41
2018-09-23T14:36:15.788Z,60.49
2018-09-23T14:37:26.151Z,59.25
2018-09-23T14:38:36.283Z,58.51
2018-09-23T14:39:46.432Z,58.42
2018-09-23T14:40:56.312Z,58.73
2018-09-23T14:42:06.344Z,57.68
2018-09-23T14:43:16.968Z,54.75
2018-09-23T14:44:27.102Z,54.47
2018-09-23T14:45:37.239Z,54.37
2018-09-23T14:46:46.824Z,55.61
2018-09-23T14:47:56.964Z,55.9
2018-09-23T14:49:06.351Z,55.9
2018-09-23T14:50:15.943Z,56.4
2018-09-23T14:51:25.830Z,56.6
2018-09-23T14:52:35.692Z,55.74
2018-09-23T14:53:45.876Z,55.26
2018-09-23T14:54:56.310Z,55.52
2018-09-23T14:56:05.956Z,56.38
2018-09-23T14:57:15.554Z,53.86
2018-09-23T14:58:25.695Z,55.58
2018-09-23T14:59:35.568Z,57.78
2018-09-23T15:00:46.056Z,58.61
2018-09-23T15:01:55.925Z,58.9
2018-09-23T15:03:06.070Z,60.02
2018-09-23T15:04:16.210Z,61.44